Time;durP1;ratioP1;P1;durP2;ratioP2;P2;SDS_P1;SDS_P2;PMS_P1;PMS_P2;Temp;Humidity;BMP_temperature;BMP_pressure;BME280_temperature;BME280_humidity;BME280_pressure;Samples;Min_cycle;Max_cycle;Signal;HPM_P1;HPM_P2
2022/05/04 00:02:09;;;;;;;12.77;7.03;;;;;;;15.12;51.94;97761.72;12697001;23;20021;-75
2022/05/04 00:07:30;;;;;;;12.52;7.47;;;;;;;15.13;51.77;97768.78;12655859;23;20014;-75
2022/05/04 00:12:50;;;;;;;11.25;7.78;;;;;;;15.06;51.68;97757.88;12657103;23;20021;-75
2022/05/04 00:18:11;;;;;;;10.68;8.00;;;;;;;15.08;51.29;97758.69;12655749;23;20329;-74
2022/05/04 00:23:31;;;;;;;11.27;7.60;;;;;;;15.03;51.14;97761.91;12657862;23;20116;-75
2022/05/04 00:28:52;;;;;;;9.85;7.70;;;;;;;14.97;51.08;97759.56;12659297;23;20069;-75
2022/05/04 00:34:13;;;;;;;12.65;7.40;;;;;;;14.89;50.99;97765.47;12679459;23;20049;-75
2022/05/04 00:39:33;;;;;;;10.95;7.10;;;;;;;14.83;50.68;97772.88;12659085;23;20018;-75
2022/05/04 00:44:54;;;;;;;10.13;7.10;;;;;;;14.78;50.69;97783.19;12619263;23;20020;-75
2022/05/04 00:50:15;;;;;;;14.90;6.88;;;;;;;14.73;50.82;97789.22;12658691;23;20025;-75
2022/05/04 00:55:35;;;;;;;11.40;6.80;;;;;;;14.57;50.80;97786.25;12618364;23;20025;-75
2022/05/04 01:00:56;;;;;;;10.32;6.80;;;;;;;14.37;50.99;97791.50;12678083;23;20014;-75
2022/05/04 01:06:17;;;;;;;11.60;7.10;;;;;;;14.18;51.18;97787.00;12623209;23;20045;-75
2022/05/04 01:11:38;;;;;;;11.05;7.10;;;;;;;14.07;51.28;97782.19;12617468;23;20315;-75
2022/05/04 01:16:59;;;;;;;9.98;7.40;;;;;;;13.96;51.50;97794.22;12678700;23;20018;-75
2022/05/04 01:22:19;;;;;;;11.20;6.93;;;;;;;13.87;51.41;97803.53;12638261;23;20028;-75
2022/05/04 01:27:40;;;;;;;10.38;6.50;;;;;;;13.75;51.55;97800.78;12638370;23;20026;-74
2022/05/04 01:33:01;;;;;;;12.25;6.80;;;;;;;13.72;51.73;97799.22;12656790;23;20018;-75
2022/05/04 01:38:22;;;;;;;10.15;6.75;;;;;;;13.67;51.68;97806.66;12634608;23;20385;-75
2022/05/04 01:43:42;;;;;;;10.40;6.47;;;;;;;13.52;51.96;97803.69;12675594;23;20038;-75
2022/05/04 01:49:03;;;;;;;9.10;7.05;;;;;;;13.40;52.03;97804.44;12634185;23;20018;-75
2022/05/04 01:54:24;;;;;;;9.55;6.50;;;;;;;13.31;52.28;97807.38;12635250;23;20025;-76
2022/05/04 01:59:46;;;;;;;9.65;6.78;;;;;;;13.13;52.43;97804.97;12654611;23;20014;-75
2022/05/04 02:05:07;;;;;;;9.40;6.57;;;;;;;13.09;52.84;97809.59;12623494;23;20025;-75
2022/05/04 02:10:27;;;;;;;11.77;6.68;;;;;;;13.03;52.62;97812.06;12625595;23;20025;-75
2022/05/04 02:15:48;;;;;;;10.90;7.03;;;;;;;12.92;52.83;97801.56;12654622;23;20120;-75
2022/05/04 02:21:09;;;;;;;8.48;6.93;;;;;;;12.86;53.14;97799.88;12654562;23;20018;-75
2022/05/04 02:26:30;;;;;;;11.23;6.93;;;;;;;12.79;53.05;97797.31;12655265;23;20441;-75
2022/05/04 02:31:50;;;;;;;14.05;7.63;;;;;;;12.73;53.43;97806.09;12634560;23;20018;-75
2022/05/04 02:42:50;;;;;;;8.68;7.78;;;;;;;12.63;53.43;97811.06;12623486;23;20028;-75
2022/05/04 02:48:11;;;;;;;11.40;7.97;;;;;;;12.58;53.58;97806.59;12635577;23;20018;-75
2022/05/04 02:53:31;;;;;;;10.43;7.10;;;;;;;12.48;53.68;97806.69;12656576;23;20014;-75
2022/05/04 02:58:53;;;;;;;10.88;7.70;;;;;;;12.41;53.64;97802.06;12656058;23;20018;-75
2022/05/04 03:04:14;;;;;;;8.98;7.47;;;;;;;12.43;53.87;97798.66;12629403;23;20014;-75
2022/05/04 03:09:35;;;;;;;9.48;7.00;;;;;;;12.41;53.92;97804.84;12610590;23;20014;-75
2022/05/04 03:14:56;;;;;;;9.10;7.40;;;;;;;12.34;54.05;97808.63;12676180;23;20018;-74
2022/05/04 03:20:17;;;;;;;10.85;7.45;;;;;;;12.29;54.04;97818.84;12676482;23;20070;-75
2022/05/04 03:25:37;;;;;;;8.52;6.70;;;;;;;12.27;54.27;97812.41;12655361;23;20018;-75
2022/05/04 03:30:58;;;;;;;10.95;7.47;;;;;;;12.18;54.45;97811.16;12697197;23;20329;-75
2022/05/04 03:36:19;;;;;;;15.35;7.50;;;;;;;12.21;54.44;97809.94;12633191;23;20025;-75
2022/05/04 03:41:39;;;;;;;12.70;7.22;;;;;;;12.22;54.46;97814.19;12653370;23;20014;-75
2022/05/04 03:47:00;;;;;;;10.13;7.25;;;;;;;12.19;54.65;97821.00;12673451;23;20077;-75
2022/05/04 03:52:21;;;;;;;11.55;6.60;;;;;;;12.21;54.49;97826.72;12653088;23;20429;-75
2022/05/04 03:57:42;;;;;;;8.50;7.07;;;;;;;12.27;54.64;97827.13;12636304;23;20025;-74
2022/05/04 04:03:03;;;;;;;10.00;7.50;;;;;;;12.41;54.32;97832.13;12635451;23;20013;-74
2022/05/04 04:08:23;;;;;;;12.52;6.78;;;;;;;12.54;54.38;97832.25;12658650;23;20014;-75
2022/05/04 04:13:44;;;;;;;13.57;6.78;;;;;;;12.72;54.00;97841.03;12659926;23;20029;-75
2022/05/04 04:19:05;;;;;;;9.80;6.93;;;;;;;12.89;53.71;97839.94;12659732;23;20045;-75
2022/05/04 04:24:25;;;;;;;8.52;6.30;;;;;;;13.03;53.78;97845.69;12679802;23;20044;-74
2022/05/04 04:29:46;;;;;;;8.93;6.45;;;;;;;13.26;53.65;97851.28;12639331;23;20449;-75
2022/05/04 04:35:08;;;;;;;12.63;6.90;;;;;;;13.58;53.46;97860.09;12658132;23;20021;-75
2022/05/04 04:40:29;;;;;;;11.82;6.50;;;;;;;13.97;53.00;97857.41;12659013;23;20334;-75
2022/05/04 04:45:50;;;;;;;10.90;6.63;;;;;;;14.47;52.43;97865.09;12656817;23;20021;-75
2022/05/04 04:51:11;;;;;;;11.60;6.97;;;;;;;14.93;52.08;97866.13;12636406;23;20100;-76
2022/05/04 04:56:31;;;;;;;10.95;6.78;;;;;;;15.35;50.85;97870.41;12677227;23;20464;-76
2022/05/04 05:01:52;;;;;;;9.25;6.20;;;;;;;15.65;49.70;97874.06;12677910;23;20033;-74
2022/05/04 05:07:12;;;;;;;13.63;7.00;;;;;;;16.07;49.44;97871.13;12656969;23;20018;-74
2022/05/04 05:12:33;;;;;;;7.65;6.22;;;;;;;16.39;48.39;97871.94;12681089;23;20472;-74
2022/05/04 05:17:54;;;;;;;9.95;6.63;;;;;;;17.08;48.05;97869.44;12637209;23;20018;-75
2022/05/04 05:23:15;;;;;;;10.02;6.35;;;;;;;18.10;45.60;97870.91;12655407;23;20040;-75
2022/05/04 05:28:35;;;;;;;10.93;6.25;;;;;;;19.30;44.93;97869.78;12655433;23;20044;-74
2022/05/04 05:33:56;;;;;;;8.25;6.20;;;;;;;23.78;40.27;97873.94;12634622;23;20018;-75
2022/05/04 05:39:16;;;;;;;10.52;6.00;;;;;;;24.72;35.86;97867.59;12634511;23;20069;-77
2022/05/04 05:44:37;;;;;;;10.10;5.15;;;;;;;23.84;37.18;97876.91;12635476;23;20334;-77
2022/05/04 05:49:57;;;;;;;8.20;5.40;;;;;;;23.76;36.50;97876.75;12635512;23;20101;-77
2022/05/04 05:55:24;;;;;;;9.95;5.40;;;;;;;24.39;35.45;97877.78;12637800;23;20321;-77
2022/05/04 06:00:45;;;;;;;6.85;4.30;;;;;;;25.15;33.75;97876.00;12635663;23;20014;-77
2022/05/04 06:06:06;;;;;;;5.82;4.90;;;;;;;25.86;30.57;97880.34;12619398;23;20014;-78
2022/05/04 06:11:27;;;;;;;7.40;4.63;;;;;;;26.75;31.34;97879.59;12661356;23;20073;-77
2022/05/04 06:16:49;;;;;;;7.43;4.78;;;;;;;27.72;29.64;97887.91;12633953;23;20018;-79
2022/05/04 06:22:11;;;;;;;6.43;4.60;;;;;;;28.48;28.35;97900.16;12614906;23;20022;-80
2022/05/04 06:27:32;;;;;;;6.55;5.38;;;;;;;28.76;27.05;97897.25;12633713;23;20021;-79
2022/05/04 06:38:33;;;;;;;9.70;5.00;;;;;;;26.07;26.24;97900.56;12638077;23;20504;-79
2022/05/04 06:43:54;;;;;;;7.83;5.13;;;;;;;25.26;28.41;97901.13;12596540;23;20441;-79
2022/05/04 06:49:15;;;;;;;6.75;4.90;;;;;;;26.79;26.86;97896.81;12656179;23;20029;-79
2022/05/04 06:54:37;;;;;;;7.15;4.50;;;;;;;28.02;27.22;97903.72;12655609;23;20345;-80
2022/05/04 07:00:00;;;;;;;6.63;4.53;;;;;;;30.06;25.72;97889.44;12615865;23;20020;-80
2022/05/04 07:05:21;;;;;;;7.53;4.25;;;;;;;31.22;22.36;97897.72;12624818;23;20024;-80
2022/05/04 07:10:42;;;;;;;5.43;3.90;;;;;;;31.94;22.80;97899.66;12625473;23;20022;-80
2022/05/04 07:16:03;;;;;;;7.97;4.05;;;;;;;32.85;21.20;97906.84;12635119;23;20024;-80
2022/05/04 07:21:24;;;;;;;6.50;3.90;;;;;;;33.47;20.58;97907.03;12675103;23;20013;-80
2022/05/04 07:26:45;;;;;;;7.35;3.97;;;;;;;34.42;19.34;97918.66;12635627;23;20045;-79
2022/05/04 07:32:07;;;;;;;4.28;3.63;;;;;;;35.23;18.13;97903.47;12652840;23;20345;-80
2022/05/04 07:37:28;;;;;;;5.20;3.42;;;;;;;36.58;15.86;97905.84;12595550;23;20022;-80
2022/05/04 07:42:52;;;;;;;6.38;3.50;;;;;;;38.16;14.87;97910.22;12635567;23;20018;-82
2022/05/04 07:48:13;;;;;;;5.70;3.47;;;;;;;38.99;13.23;97908.91;12596668;23;20272;-81
2022/05/04 07:53:35;;;;;;;6.90;3.42;;;;;;;39.61;13.21;97916.38;12635618;23;20022;-80
2022/05/04 07:58:56;;;;;;;6.50;3.08;;;;;;;40.56;12.37;97911.75;12616457;23;20425;-81
2022/05/04 08:04:16;;;;;;;5.72;3.08;;;;;;;40.20;12.32;97910.63;12627924;23;20022;-81
2022/05/04 08:09:37;;;;;;;7.20;3.17;;;;;;;37.42;13.82;97904.31;12628955;23;20017;-80
2022/05/04 08:15:02;;;;;;;5.85;2.85;;;;;;;36.94;14.68;97907.50;12635178;23;20018;-81
2022/05/04 08:20:24;;;;;;;7.35;2.60;;;;;;;38.88;14.22;97909.34;12615173;23;20092;-81
2022/05/04 08:25:46;;;;;;;5.30;2.80;;;;;;;39.45;13.00;97915.59;12615207;23;20333;-79
2022/05/04 08:31:07;;;;;;;3.58;2.40;;;;;;;43.60;11.49;97923.94;12655339;23;20017;-80
2022/05/04 08:36:29;;;;;;;5.50;2.65;;;;;;;46.50;8.48;97926.06;12634993;23;20374;-80
2022/05/04 08:41:52;;;;;;;6.97;2.40;;;;;;;48.56;6.33;97922.25;12616081;23;20101;-80
2022/05/04 08:47:12;;;;;;;5.22;2.58;;;;;;;47.11;6.70;97918.44;12659144;23;20092;-80
2022/05/04 08:52:35;;;;;;;3.95;2.10;;;;;;;47.55;6.23;97925.34;12618329;23;20345;-80
2022/05/04 08:57:57;;;;;;;3.80;2.20;;;;;;;47.56;6.12;97917.88;12658169;23;20018;-80
2022/05/04 09:03:21;;;;;;;6.97;2.60;;;;;;;47.99;5.62;97915.13;12633878;23;20028;-81
2022/05/04 09:08:55;;;;;;;4.68;2.47;;;;;;;46.73;5.98;97913.25;12621920;23;20030;-80
2022/05/04 09:14:25;;;;;;;6.10;2.60;;;;;;;46.31;6.70;97909.00;12616041;23;20017;-81
2022/05/04 09:25:42;;;;;;;6.35;1.80;;;;;;;49.06;5.83;97901.03;12646608;23;20061;-81
2022/05/04 09:31:07;;;;;;;4.40;2.20;;;;;;;48.61;5.38;97901.84;12637982;23;20033;-81
2022/05/04 09:36:34;;;;;;;5.30;2.17;;;;;;;47.26;5.38;97906.22;12637358;23;20398;-80
2022/05/04 09:47:51;;;;;;;3.17;2.00;;;;;;;47.68;5.06;97892.53;12641143;23;20025;-80
2022/05/04 09:53:15;;;;;;;3.70;2.10;;;;;;;46.70;5.64;97891.34;12617437;23;20026;-81
2022/05/04 09:58:37;;;;;;;3.30;1.90;;;;;;;46.70;5.69;97889.09;12618295;23;20018;-78
2022/05/04 10:04:00;;;;;;;2.83;1.80;;;;;;;45.47;6.37;97887.19;12616297;23;20021;-78
2022/05/04 10:09:22;;;;;;;4.13;1.98;;;;;;;45.86;5.96;97882.13;12633944;23;20018;-79
2022/05/04 10:14:43;;;;;;;3.03;2.10;;;;;;;46.99;6.23;97875.06;12636039;23;20022;-78
2022/05/04 10:20:15;;;;;;;4.13;1.77;;;;;;;48.31;5.20;97876.25;12636356;23;20045;-78
2022/05/04 10:25:52;;;;;;;4.57;2.20;;;;;;;49.75;4.70;97859.34;12640774;23;20096;-79
2022/05/04 10:31:13;;;;;;;5.97;2.00;;;;;;;49.85;4.08;97861.38;12636327;23;20014;-79
2022/05/04 10:36:37;;;;;;;2.47;2.20;;;;;;;49.87;4.15;97857.53;12636725;23;20092;-79
2022/05/04 10:42:00;;;;;;;3.83;2.15;;;;;;;49.85;4.24;97849.53;12636102;23;20097;-78
2022/05/04 10:47:22;;;;;;;3.63;2.17;;;;;;;49.76;3.96;97846.59;12636701;23;20072;-79
2022/05/04 10:52:47;;;;;;;5.05;1.70;;;;;;;49.69;3.89;97839.84;12635633;23;20014;-77
2022/05/04 10:58:30;;;;;;;5.43;2.13;;;;;;;45.56;5.13;97835.66;12616363;23;20124;-77
2022/05/04 11:04:09;;;;;;;2.63;2.17;;;;;;;40.58;7.27;97823.22;12692252;23;20022;-79
2022/05/04 11:09:39;;;;;;;4.47;2.40;;;;;;;37.24;10.08;97817.66;12635738;23;20603;-78
2022/05/04 11:15:02;;;;;;;4.70;2.63;;;;;;;34.98;11.48;97808.47;12636792;23;20026;-77
2022/05/04 11:20:23;;;;;;;4.78;3.22;;;;;;;33.68;12.61;97808.91;12633673;23;20053;-78
2022/05/04 11:25:48;;;;;;;5.22;3.33;;;;;;;33.22;13.71;97808.50;12673750;23;20097;-76
2022/05/04 11:31:11;;;;;;;6.57;2.97;;;;;;;33.03;13.48;97801.69;12673790;23;20020;-76
2022/05/04 11:36:32;;;;;;;6.60;3.90;;;;;;;31.38;15.07;97795.19;12633253;23;20022;-75
2022/05/04 11:41:54;;;;;;;5.25;3.50;;;;;;;30.73;15.55;97785.19;12672764;23;20025;-76
2022/05/04 11:47:15;;;;;;;6.65;3.00;;;;;;;30.28;16.58;97790.69;12653422;23;20049;-75
2022/05/04 11:52:37;;;;;;;6.15;2.90;;;;;;;30.07;16.73;97785.13;12633301;23;20020;-76
2022/05/04 11:57:59;;;;;;;8.02;2.83;;;;;;;30.16;16.45;97774.28;12672757;23;20021;-75
2022/05/04 12:03:25;;;;;;;11.07;3.70;;;;;;;29.57;16.86;97769.00;12614391;23;20022;-75
2022/05/04 12:08:46;;;;;;;6.15;3.90;;;;;;;29.29;17.51;97759.09;12692329;23;20097;-75
2022/05/04 12:14:09;;;;;;;5.20;3.70;;;;;;;28.58;17.42;97759.44;12672396;23;20342;-75
2022/05/04 12:19:30;;;;;;;7.78;3.58;;;;;;;27.93;17.91;97750.97;12616852;23;20314;-76
2022/05/04 12:24:52;;;;;;;4.28;3.45;;;;;;;27.00;18.29;97749.41;12677137;23;20500;-75
2022/05/04 12:36:04;;;;;;;3.22;2.38;;;;;;;28.09;18.00;97730.16;12680251;23;20335;-75
2022/05/04 12:41:26;;;;;;;8.70;3.10;;;;;;;27.58;18.36;97739.47;12640975;23;20021;-76
2022/05/04 12:46:53;;;;;;;3.40;2.70;;;;;;;27.21;18.40;97726.56;12658601;23;20022;-75
2022/05/04 12:52:14;;;;;;;4.43;2.65;;;;;;;27.43;18.44;97718.00;12638489;23;20018;-75
